Decoded Metar for CYYW (ARMSTRONG in CANADA) (IATA:YYW) | Meteo·Mobile Aviation Weather
aviador You're here:

CYYW Decoded Metar

ARMSTRONG in CANADA
Report Time2018-10-19 19:09:00
UTC Time2018-10-19 19:28:34
Flight Rules vfr VFR
Wind300° at 12 kt
W.Decomp.*RWY 30: 12.0 kt HW 0.8 kt RCW
W.Rank300° ranks 3
Current wind is above 300° avg. (7.5)
Visibility9999 m
Phenomena:N/A
Clouds:Few 050 Hf
Scattered 070 Hf
Overcast 100 Hf
Expected CloudBase > 1,200 ft AGL from Temp-Dew spread
Ceiling10,000 ft
Temp06°C (ISA -7)
Dew Point03°C (81% RH)
AAT0.2°C
QNH996 hPa
Density Alt919 ft
Elevation1,058 ft
Report Wrong Elevation
Raw Report
SPECI CYYW 191909Z AUTO 30012KT 9SM FEW050 SCT070 OVC100 06/03 A2942
RMK SLP967=

Extra information for CYYW:More info

Metar Taf Metar & Taf Last 4 Metars F.Rules Stats Wind Profile Meteogram Temp Stats Airport Information Weather charts Add Link Nearby VenuesMetar ALERT Operation Metar Decoded Social comments